Time,TemperatureF,DewpointF,PressureIn,WindDirection,WindDirectionDegrees,WindSpeedMPH,WindSpeedGustMPH,Humidity,HourlyPrecipIn,Conditions,Clouds,dailyrainin,SoftwareType,DateUTC
2014-01-08 03:25:00,22.3,19.6,30.48,SE,129,0.0,6.0,89,0.00,,,0.00,Wunderground v.1.15,2014-01-08 09:25:00,
2014-01-08 03:30:00,22.3,19.0,30.47,SE,129,0.0,0.0,87,0.00,,,0.00,Wunderground v.1.15,2014-01-08 09:30:00,
2014-01-08 03:35:00,22.5,19.2,30.47,SE,129,0.0,0.0,87,0.00,,,0.00,Wunderground v.1.15,2014-01-08 09:35:00,
2014-01-08 03:40:00,22.4,19.4,30.47,East,98,0.0,0.0,88,0.00,,,0.00,Wunderground v.1.15,2014-01-08 09:40:00,
2014-01-08 03:50:00,21.7,19.0,30.47,ESE,103,0.0,0.0,89,0.00,,,0.00,Wunderground v.1.15,2014-01-08 09:50:00,
2014-01-08 03:55:00,21.5,18.8,30.47,East,99,0.0,0.0,89,0.00,,,0.00,Wunderground v.1.15,2014-01-08 09:55:00,
2014-01-08 04:00:00,21.3,18.8,30.47,East,99,0.0,0.0,90,0.00,,,0.00,Wunderground v.1.15,2014-01-08 10:00:00,
2014-01-08 04:05:00,21.2,18.7,30.47,East,99,0.0,1.0,90,0.00,,,0.00,Wunderground v.1.15,2014-01-08 10:05:00,
2014-01-08 04:10:00,21.3,19.1,30.47,East,101,0.0,1.0,91,0.00,,,0.00,Wunderground v.1.15,2014-01-08 10:10:00,
2014-01-08 04:20:00,21.8,19.8,30.46,East,101,0.0,1.0,92,0.00,,,0.00,Wunderground v.1.15,2014-01-08 10:20:00,
2014-01-08 04:25:00,21.8,19.8,30.46,East,101,0.0,1.0,92,0.00,,,0.00,Wunderground v.1.15,2014-01-08 10:25:00,
2014-01-08 04:30:00,21.5,19.3,30.46,East,101,0.0,1.0,91,0.00,,,0.00,Wunderground v.1.15,2014-01-08 10:30:00,
2014-01-08 04:35:00,21.3,19.1,30.46,East,101,0.0,1.0,91,0.00,,,0.00,Wunderground v.1.15,2014-01-08 10:35:00,
2014-01-08 04:40:00,21.3,19.3,30.45,ESE,105,0.0,1.0,92,0.00,,,0.00,Wunderground v.1.15,2014-01-08 10:40:00,
2014-01-08 04:45:00,20.9,18.7,30.45,ESE,105,0.0,1.0,91,0.00,,,0.00,Wunderground v.1.15,2014-01-08 10:45:00,
2014-01-08 04:55:00,20.9,18.9,30.45,ESE,105,0.0,1.0,92,0.00,,,0.00,Wunderground v.1.15,2014-01-08 10:55:00,
2014-01-08 05:00:00,21.0,19.3,30.45,ESE,105,0.0,1.0,93,0.00,,,0.00,Wunderground v.1.15,2014-01-08 11:00:00,
2014-01-08 05:05:00,21.0,19.0,30.45,ESE,103,0.0,1.0,92,0.00,,,0.00,Wunderground v.1.15,2014-01-08 11:05:00,
2014-01-08 05:10:00,20.7,18.7,30.45,ESE,113,0.0,1.0,92,0.00,,,0.00,Wunderground v.1.15,2014-01-08 11:10:00,
2014-01-08 05:15:00,20.8,19.1,30.44,ESE,107,0.0,1.0,93,0.00,,,0.00,Wunderground v.1.15,2014-01-08 11:15:00,
2014-01-08 05:20:00,20.7,19.0,30.44,SE,134,0.0,1.0,93,0.00,,,0.00,Wunderground v.1.15,2014-01-08 11:20:00,
2014-01-08 05:25:00,20.4,18.7,30.44,SE,134,0.0,1.0,93,0.00,,,0.00,Wunderground v.1.15,2014-01-08 11:25:00,
2014-01-08 05:30:00,20.5,18.8,30.44,SE,134,0.0,1.0,93,0.00,,,0.00,Wunderground v.1.15,2014-01-08 11:30:00,
2014-01-08 05:35:00,20.9,19.4,30.44,ESE,122,0.0,1.0,94,0.00,,,0.00,Wunderground v.1.15,2014-01-08 11:35:00,
2014-01-08 05:40:00,21.2,19.5,30.44,SE,131,0.0,1.0,93,0.00,,,0.00,Wunderground v.1.15,2014-01-08 11:40:00,
2014-01-08 05:45:00,21.2,19.5,30.44,SE,137,0.0,1.0,93,0.00,,,0.00,Wunderground v.1.15,2014-01-08 11:45:00,
2014-01-08 05:55:00,21.3,19.6,30.44,SE,133,0.0,1.0,93,0.00,,,0.00,Wunderground v.1.15,2014-01-08 11:55:00,
2014-01-08 06:00:00,21.5,19.8,30.44,SE,133,0.0,1.0,93,0.00,,,0.00,Wunderground v.1.15,2014-01-08 12:00:00,
2014-01-08 06:05:00,21.9,20.4,30.44,SSE,165,0.0,1.0,94,0.00,,,0.00,Wunderground v.1.15,2014-01-08 12:05:00,
2014-01-08 06:10:00,22.3,20.6,30.44,SSE,165,0.0,1.0,93,0.00,,,0.00,Wunderground v.1.15,2014-01-08 12:10:00,
2014-01-08 06:15:00,22.7,21.0,30.44,SE,140,0.0,1.0,93,0.00,,,0.00,Wunderground v.1.15,2014-01-08 12:15:00,
2014-01-08 06:20:00,23.1,21.4,30.44,SE,135,0.0,1.0,93,0.00,,,0.00,Wunderground v.1.15,2014-01-08 12:20:00,
2014-01-08 06:30:00,23.2,21.0,30.44,SE,132,0.0,1.0,91,0.00,,,0.00,Wunderground v.1.15,2014-01-08 12:30:00,
2014-01-08 06:35:00,23.1,20.6,30.44,SE,127,0.0,1.0,90,0.00,,,0.00,Wunderground v.1.15,2014-01-08 12:35:00,
2014-01-08 06:40:00,22.8,20.3,30.44,ESE,112,0.0,1.0,90,0.00,,,0.00,Wunderground v.1.15,2014-01-08 12:40:00,
2014-01-08 06:45:00,22.5,19.7,30.44,ESE,114,1.0,1.0,89,0.00,,,0.00,Wunderground v.1.15,2014-01-08 12:45:00,
2014-01-08 06:50:00,22.8,20.6,30.44,ESE,105,0.0,1.0,91,0.00,,,0.00,Wunderground v.1.15,2014-01-08 12:50:00,
2014-01-08 07:00:00,23.6,21.1,30.44,ESE,106,0.0,1.0,90,0.00,,,0.00,Wunderground v.1.15,2014-01-08 13:00:00,
2014-01-08 07:05:00,23.9,21.1,30.44,East,96,1.0,1.0,89,0.00,,,0.00,Wunderground v.1.15,2014-01-08 13:05:00,
2014-01-08 07:10:00,24.0,21.0,30.44,ESE,115,1.0,1.0,88,0.00,,,0.00,Wunderground v.1.15,2014-01-08 13:10:00,
2014-01-08 07:15:00,24.3,21.3,30.44,East,100,1.0,2.0,88,0.00,,,0.00,Wunderground v.1.15,2014-01-08 13:15:00,
2014-01-08 07:20:00,24.7,21.4,30.44,ESE,108,2.0,2.0,87,0.00,,,0.00,Wunderground v.1.15,2014-01-08 13:20:00,
2014-01-08 07:25:00,25.0,21.7,30.44,East,89,2.0,2.0,87,0.00,,,0.00,Wunderground v.1.15,2014-01-08 13:25:00,
2014-01-08 07:35:00,26.1,22.2,30.44,ESE,108,2.0,2.0,85,0.00,,,0.00,Wunderground v.1.15,2014-01-08 13:35:00,
2014-01-08 07:40:00,26.8,22.6,30.45,ESE,102,2.0,2.0,84,0.00,,,0.00,Wunderground v.1.15,2014-01-08 13:40:00,
2014-01-08 07:45:00,27.6,22.8,30.45,ESE,108,2.0,2.0,82,0.00,,,0.00,Wunderground v.1.15,2014-01-08 13:45:00,
2014-01-08 07:50:00,28.2,23.1,30.45,ESE,118,2.0,2.0,81,0.00,,,0.00,Wunderground v.1.15,2014-01-08 13:50:00,
2014-01-08 07:55:00,28.5,23.1,30.45,SE,130,3.0,5.0,80,0.00,,,0.00,Wunderground v.1.15,2014-01-08 13:55:00,
2014-01-08 08:00:00,28.9,23.2,30.45,SE,126,3.0,5.0,79,0.00,,,0.00,Wunderground v.1.15,2014-01-08 14:00:00,
2014-01-08 08:05:00,29.2,23.2,30.44,SE,126,4.0,6.0,78,0.00,,,0.00,Wunderground v.1.15,2014-01-08 14:05:00,
2014-01-08 08:10:00,29.6,23.6,30.44,ESE,105,5.0,5.0,78,0.00,,,0.00,Wunderground v.1.15,2014-01-08 14:10:00,
2014-01-08 08:15:00,29.9,23.3,30.44,ESE,123,5.0,7.0,76,0.00,,,0.00,Wunderground v.1.15,2014-01-08 14:15:00,
2014-01-08 08:20:00,30.2,23.5,30.44,East,89,6.0,6.0,76,0.00,,,0.00,Wunderground v.1.15,2014-01-08 14:20:00,
2014-01-08 08:25:00,30.5,23.2,30.44,East,79,6.0,6.0,74,0.00,,,0.00,Wunderground v.1.15,2014-01-08 14:25:00,
2014-01-08 08:30:00,30.9,23.6,30.44,SE,134,6.0,6.0,74,0.00,,,0.00,Wunderground v.1.15,2014-01-08 14:30:00,
2014-01-08 08:40:00,32.1,25.1,30.45,SE,136,5.0,5.0,75,0.00,,,0.00,Wunderground v.1.15,2014-01-08 14:40:00,
2014-01-08 08:45:00,32.6,24.9,30.45,East,89,4.0,5.0,73,0.00,,,0.00,Wunderground v.1.15,2014-01-08 14:45:00,
2014-01-08 08:50:00,32.8,24.8,30.45,SE,133,5.0,6.0,72,0.00,,,0.00,Wunderground v.1.15,2014-01-08 14:50:00,
2014-01-08 08:55:00,33.3,25.6,30.45,SE,143,6.0,6.0,73,0.00,,,0.00,Wunderground v.1.15,2014-01-08 14:55:00,
2014-01-08 09:00:00,33.6,25.2,30.45,East,101,6.0,6.0,71,0.00,,,0.00,Wunderground v.1.15,2014-01-08 15:00:00,
2014-01-08 09:10:00,34.3,25.2,30.46,SE,126,6.0,6.0,69,0.00,,,0.00,Wunderground v.1.15,2014-01-08 15:10:00,
2014-01-08 09:15:00,34.8,25.7,30.45,SE,143,5.0,6.0,69,0.00,,,0.00,Wunderground v.1.15,2014-01-08 15:15:00,
2014-01-08 09:20:00,35.5,25.6,30.45,East,94,6.0,10.0,67,0.00,,,0.00,Wunderground v.1.15,2014-01-08 15:20:00,
2014-01-08 09:25:00,35.9,25.6,30.45,ESE,117,6.0,10.0,66,0.00,,,0.00,Wunderground v.1.15,2014-01-08 15:25:00,
2014-01-08 09:30:00,36.4,26.5,30.45,ESE,114,7.0,7.0,67,0.00,,,0.00,Wunderground v.1.15,2014-01-08 15:30:00,
2014-01-08 09:35:00,36.9,26.6,30.46,SE,137,7.0,7.0,66,0.00,,,0.00,Wunderground v.1.15,2014-01-08 15:35:00,
2014-01-08 09:45:00,37.5,26.0,30.46,ESE,110,7.0,9.0,63,0.00,,,0.00,Wunderground v.1.15,2014-01-08 15:45:00,
2014-01-08 09:50:00,37.4,26.3,30.46,SE,132,7.0,7.0,64,0.00,,,0.00,Wunderground v.1.15,2014-01-08 15:50:00,
2014-01-08 09:55:00,37.7,26.2,30.46,South,170,7.0,7.0,63,0.00,,,0.00,Wunderground v.1.15,2014-01-08 15:55:00,
2014-01-08 10:00:00,38.1,26.2,30.46,ESE,108,7.0,7.0,62,0.00,,,0.00,Wunderground v.1.15,2014-01-08 16:00:00,
2014-01-08 10:05:00,38.5,27.0,30.46,ESE,118,6.0,7.0,63,0.00,,,0.00,Wunderground v.1.15,2014-01-08 16:05:00,
2014-01-08 10:10:00,39.2,27.3,30.46,SE,139,6.0,6.0,62,0.00,,,0.00,Wunderground v.1.15,2014-01-08 16:10:00,
2014-01-08 10:20:00,39.6,28.0,30.46,ESE,108,7.0,7.0,63,0.00,,,0.00,Wunderground v.1.15,2014-01-08 16:20:00,
2014-01-08 10:25:00,39.9,28.3,30.45,ESE,117,6.0,7.0,63,0.00,,,0.00,Wunderground v.1.15,2014-01-08 16:25:00,
2014-01-08 10:30:00,40.6,29.0,30.45,SE,137,6.0,6.0,63,0.00,,,0.00,Wunderground v.1.15,2014-01-08 16:30:00,
2014-01-08 10:35:00,40.6,28.2,30.45,East,96,6.0,6.0,61,0.00,,,0.00,Wunderground v.1.15,2014-01-08 16:35:00,
2014-01-08 10:40:00,40.9,28.5,30.44,SE,130,6.0,6.0,61,0.00,,,0.00,Wunderground v.1.15,2014-01-08 16:40:00,
2014-01-08 10:45:00,41.1,29.1,30.44,SE,142,7.0,7.0,62,0.00,,,0.00,Wunderground v.1.15,2014-01-08 16:45:00,
2014-01-08 10:50:00,40.8,28.8,30.44,SE,141,8.0,8.0,62,0.00,,,0.00,Wunderground v.1.15,2014-01-08 16:50:00,
2014-01-08 10:55:00,40.8,28.8,30.44,ESE,114,7.0,9.0,62,0.00,,,0.00,Wunderground v.1.15,2014-01-08 16:55:00,
2014-01-08 11:00:00,40.7,28.7,30.43,SE,125,7.0,7.0,62,0.00,,,0.00,Wunderground v.1.15,2014-01-08 17:00:00,
2014-01-08 11:05:00,40.9,29.7,30.43,SSE,149,6.0,7.0,64,0.00,,,0.00,Wunderground v.1.15,2014-01-08 17:05:00,
2014-01-08 11:10:00,41.2,29.5,30.42,SSE,156,6.0,7.0,63,0.00,,,0.00,Wunderground v.1.15,2014-01-08 17:10:00,
2014-01-08 11:20:00,41.7,29.6,30.41,SE,139,7.0,7.0,62,0.00,,,0.00,Wunderground v.1.15,2014-01-08 17:20:00,
2014-01-08 11:25:00,42.4,29.9,30.41,SE,146,6.0,7.0,61,0.00,,,0.00,Wunderground v.1.15,2014-01-08 17:25:00,
2014-01-08 11:30:00,43.0,30.5,30.40,East,98,5.0,8.0,61,0.00,,,0.00,Wunderground v.1.15,2014-01-08 17:30:00,
2014-01-08 11:35:00,43.2,29.4,30.40,SE,146,6.0,8.0,58,0.00,,,0.00,Wunderground v.1.15,2014-01-08 17:35:00,
2014-01-08 11:40:00,43.5,30.1,30.39,SE,137,7.0,7.0,59,0.00,,,0.00,Wunderground v.1.15,2014-01-08 17:40:00,
2014-01-08 11:50:00,43.2,29.0,30.39,East,98,7.0,7.0,57,0.00,,,0.00,Wunderground v.1.15,2014-01-08 17:50:00,
2014-01-08 11:55:00,43.3,29.5,30.38,SE,131,7.0,7.0,58,0.00,,,0.00,Wunderground v.1.15,2014-01-08 17:55:00,
2014-01-08 12:00:00,43.5,30.1,30.39,East,94,7.0,8.0,59,0.00,,,0.00,Wunderground v.1.15,2014-01-08 18:00:00,
2014-01-08 12:05:00,43.6,30.2,30.38,SE,144,6.0,8.0,59,0.00,,,0.00,Wunderground v.1.15,2014-01-08 18:05:00,
2014-01-08 12:10:00,43.6,28.9,30.38,SE,127,5.0,5.0,56,0.00,,,0.00,Wunderground v.1.15,2014-01-08 18:10:00,
2014-01-08 12:15:00,43.7,29.0,30.38,East,86,6.0,7.0,56,0.00,,,0.00,Wunderground v.1.15,2014-01-08 18:15:00,
2014-01-08 12:25:00,44.1,28.5,30.37,SE,143,6.0,8.0,54,0.00,,,0.00,Wunderground v.1.15,2014-01-08 18:25:00,
2014-01-08 12:30:00,44.1,28.0,30.37,ESE,114,6.0,6.0,53,0.00,,,0.00,Wunderground v.1.15,2014-01-08 18:30:00,
2014-01-08 12:35:00,44.3,29.1,30.37,SSE,153,6.0,6.0,55,0.00,,,0.00,Wunderground v.1.15,2014-01-08 18:35:00,
2014-01-08 12:40:00,44.3,27.8,30.37,ESE,122,5.0,5.0,52,0.00,,,0.00,Wunderground v.1.15,2014-01-08 18:40:00,
2014-01-08 12:45:00,44.3,26.8,30.37,SE,130,6.0,6.0,50,0.00,,,0.00,Wunderground v.1.15,2014-01-08 18:45:00,
2014-01-08 12:55:00,44.3,27.8,30.36,ESE,121,6.0,7.0,52,0.00,,,0.00,Wunderground v.1.15,2014-01-08 18:55:00,
2014-01-08 13:00:00,44.4,28.3,30.36,SE,134,5.0,5.0,53,0.00,,,0.00,Wunderground v.1.15,2014-01-08 19:00:00,
2014-01-08 13:05:00,44.7,28.1,30.36,SE,127,5.0,5.0,52,0.00,,,0.00,Wunderground v.1.15,2014-01-08 19:05:00,
2014-01-08 13:10:00,44.9,27.8,30.35,SE,141,5.0,5.0,51,0.00,,,0.00,Wunderground v.1.15,2014-01-08 19:10:00,
2014-01-08 13:15:00,45.1,28.0,30.35,ESE,103,5.0,6.0,51,0.00,,,0.00,Wunderground v.1.15,2014-01-08 19:15:00,
2014-01-08 13:20:00,45.3,28.7,30.35,ESE,119,5.0,5.0,52,0.00,,,0.00,Wunderground v.1.15,2014-01-08 19:20:00,
2014-01-08 13:30:00,45.5,27.9,30.35,SE,136,6.0,7.0,50,0.00,,,0.00,Wunderground v.1.15,2014-01-08 19:30:00,
2014-01-08 13:35:00,45.9,29.2,30.35,SE,126,5.0,7.0,52,0.00,,,0.00,Wunderground v.1.15,2014-01-08 19:35:00,
2014-01-08 13:40:00,46.3,29.1,30.34,SE,141,5.0,5.0,51,0.00,,,0.00,Wunderground v.1.15,2014-01-08 19:40:00,
2014-01-08 13:45:00,46.4,28.8,30.34,ESE,105,5.0,5.0,50,0.00,,,0.00,Wunderground v.1.15,2014-01-08 19:45:00,
2014-01-08 13:50:00,46.3,28.7,30.34,East,79,7.0,7.0,50,0.00,,,0.00,Wunderground v.1.15,2014-01-08 19:50:00,
2014-01-08 14:00:00,46.5,29.3,30.34,SE,124,6.0,9.0,51,0.00,,,0.00,Wunderground v.1.15,2014-01-08 20:00:00,
2014-01-08 14:05:00,46.5,29.3,30.34,SE,134,6.0,9.0,51,0.00,,,0.00,Wunderground v.1.15,2014-01-08 20:05:00,
2014-01-08 14:10:00,46.6,29.9,30.34,SE,134,6.0,6.0,52,0.00,,,0.00,Wunderground v.1.15,2014-01-08 20:10:00,
2014-01-08 14:15:00,46.6,30.4,30.35,SE,130,6.0,7.0,53,0.00,,,0.00,Wunderground v.1.15,2014-01-08 20:15:00,
2014-01-08 14:20:00,46.5,29.8,30.34,East,98,6.0,6.0,52,0.00,,,0.00,Wunderground v.1.15,2014-01-08 20:20:00,
2014-01-08 14:25:00,46.5,30.3,30.34,SE,136,6.0,8.0,53,0.00,,,0.00,Wunderground v.1.15,2014-01-08 20:25:00,
2014-01-08 14:35:00,46.8,31.5,30.33,SE,145,5.0,6.0,55,0.00,,,0.00,Wunderground v.1.15,2014-01-08 20:35:00,
2014-01-08 14:40:00,46.9,30.6,30.33,ESE,114,4.0,5.0,53,0.00,,,0.00,Wunderground v.1.15,2014-01-08 20:40:00,
2014-01-08 14:45:00,46.9,30.6,30.33,SE,143,5.0,5.0,53,0.00,,,0.00,Wunderground v.1.15,2014-01-08 20:45:00,
2014-01-08 14:50:00,47.0,30.7,30.33,SE,129,5.0,5.0,53,0.00,,,0.00,Wunderground v.1.15,2014-01-08 20:50:00,
2014-01-08 14:55:00,47.1,31.3,30.33,ESE,108,4.0,5.0,54,0.00,,,0.00,Wunderground v.1.15,2014-01-08 20:55:00,
2014-01-08 15:00:00,47.3,31.0,30.32,SSE,148,5.0,5.0,53,0.00,,,0.00,Wunderground v.1.15,2014-01-08 21:00:00,
2014-01-08 15:05:00,47.5,31.2,30.32,SE,131,5.0,5.0,53,0.00,,,0.00,Wunderground v.1.15,2014-01-08 21:05:00,
2014-01-08 15:10:00,47.7,30.9,30.32,SE,142,5.0,6.0,52,0.00,,,0.00,Wunderground v.1.15,2014-01-08 21:10:00,
2014-01-08 15:15:00,47.8,31.5,30.32,ESE,116,6.0,6.0,53,0.00,,,0.00,Wunderground v.1.15,2014-01-08 21:15:00,
2014-01-08 15:20:00,48.0,31.7,30.32,SSE,148,5.0,5.0,53,0.00,,,0.00,Wunderground v.1.15,2014-01-08 21:20:00,
2014-01-08 15:25:00,48.1,30.3,30.32,SE,134,5.0,8.0,50,0.00,,,0.00,Wunderground v.1.15,2014-01-08 21:25:00,
2014-01-08 15:35:00,48.1,30.3,30.30,ESE,123,7.0,7.0,50,0.00,,,0.00,Wunderground v.1.15,2014-01-08 21:35:00,
2014-01-08 15:40:00,48.3,31.5,30.31,SE,139,7.0,7.0,52,0.00,,,0.00,Wunderground v.1.15,2014-01-08 21:40:00,
2014-01-08 15:45:00,48.5,31.7,30.31,SSE,148,6.0,7.0,52,0.00,,,0.00,Wunderground v.1.15,2014-01-08 21:45:00,
2014-01-08 15:50:00,48.6,31.3,30.31,SE,142,5.0,7.0,51,0.00,,,0.00,Wunderground v.1.15,2014-01-08 21:50:00,
2014-01-08 15:55:00,48.7,30.9,30.32,SE,141,5.0,7.0,50,0.00,,,0.00,Wunderground v.1.15,2014-01-08 21:55:00,
2014-01-08 16:00:00,48.8,31.0,30.32,SSE,151,5.0,5.0,50,0.00,,,0.00,Wunderground v.1.15,2014-01-08 22:00:00,
2014-01-08 16:10:00,49.1,30.2,30.32,SSE,160,6.0,7.0,48,0.00,,,0.00,Wunderground v.1.15,2014-01-08 22:10:00,
2014-01-08 16:15:00,49.3,29.9,30.32,SSE,166,5.0,7.0,47,0.00,,,0.00,Wunderground v.1.15,2014-01-08 22:15:00,
2014-01-08 16:20:00,48.9,30.1,30.32,SE,141,5.0,5.0,48,0.00,,,0.00,Wunderground v.1.15,2014-01-08 22:20:00,
2014-01-08 16:25:00,48.5,30.2,30.32,SE,139,5.0,5.0,49,0.00,,,0.00,Wunderground v.1.15,2014-01-08 22:25:00,
2014-01-08 16:30:00,48.6,30.8,30.32,SE,129,5.0,5.0,50,0.00,,,0.00,Wunderground v.1.15,2014-01-08 22:30:00,
2014-01-08 16:40:00,48.6,29.8,30.31,SSE,150,7.0,7.0,48,0.00,,,0.00,Wunderground v.1.15,2014-01-08 22:40:00,
2014-01-08 16:45:00,48.7,29.4,30.31,ESE,122,7.0,7.0,47,0.00,,,0.00,Wunderground v.1.15,2014-01-08 22:45:00,
2014-01-08 16:50:00,48.6,29.3,30.31,SE,141,6.0,6.0,47,0.00,,,0.00,Wunderground v.1.15,2014-01-08 22:50:00,
2014-01-08 16:55:00,48.7,29.9,30.32,SSE,155,5.0,6.0,48,0.00,,,0.00,Wunderground v.1.15,2014-01-08 22:55:00,
2014-01-08 17:00:00,48.4,29.6,30.31,SE,131,5.0,5.0,48,0.00,,,0.00,Wunderground v.1.15,2014-01-08 23:00:00,
2014-01-08 17:05:00,48.0,29.7,30.32,SE,127,4.0,5.0,49,0.00,,,0.00,Wunderground v.1.15,2014-01-08 23:05:00,
2014-01-08 17:15:00,47.0,29.3,30.32,SE,136,3.0,4.0,50,0.00,,,0.00,Wunderground v.1.15,2014-01-08 23:15:00,
2014-01-08 17:20:00,46.5,29.3,30.32,SE,143,2.0,2.0,51,0.00,,,0.00,Wunderground v.1.15,2014-01-08 23:20:00,
2014-01-08 17:25:00,46.1,29.4,30.31,SE,133,3.0,3.0,52,0.00,,,0.00,Wunderground v.1.15,2014-01-08 23:25:00,
2014-01-08 17:30:00,45.3,29.6,30.31,SE,132,3.0,3.0,54,0.00,,,0.00,Wunderground v.1.15,2014-01-08 23:30:00,
2014-01-08 17:35:00,45.1,29.4,30.31,SE,137,2.0,11.0,54,0.00,,,0.00,Wunderground v.1.15,2014-01-08 23:35:00,
2014-01-08 17:45:00,43.3,30.3,30.31,SE,132,1.0,11.0,60,0.00,,,0.00,Wunderground v.1.15,2014-01-08 23:45:00,
2014-01-08 17:50:00,43.2,29.8,30.31,SE,132,1.0,11.0,59,0.00,,,0.00,Wunderground v.1.15,2014-01-08 23:50:00,
2014-01-08 17:55:00,43.1,29.3,30.31,SE,145,1.0,11.0,58,0.00,,,0.00,Wunderground v.1.15,2014-01-08 23:55:00,
2014-01-08 18:00:00,43.1,28.9,30.31,SE,140,1.0,11.0,57,0.00,,,0.00,Wunderground v.1.15,2014-01-09 00:00:00,
2014-01-08 18:05:00,43.3,29.1,30.31,ESE,122,1.0,11.0,57,0.00,,,0.00,Wunderground v.1.15,2014-01-09 00:05:00,
2014-01-08 18:10:00,44.3,28.7,30.31,ESE,117,2.0,11.0,54,0.00,,,0.00,Wunderground v.1.15,2014-01-09 00:10:00,
2014-01-08 18:20:00,44.7,29.1,30.30,ESE,108,3.0,11.0,54,0.00,,,0.00,Wunderground v.1.15,2014-01-09 00:20:00,
2014-01-08 18:25:00,44.4,29.2,30.31,SE,146,3.0,11.0,55,0.00,,,0.00,Wunderground v.1.15,2014-01-09 00:25:00,
2014-01-08 18:30:00,43.4,30.0,30.31,SE,134,2.0,2.0,59,0.00,,,0.00,Wunderground v.1.15,2014-01-09 00:30:00,
2014-01-08 18:40:00,42.6,30.5,30.31,SE,145,1.0,11.0,62,0.00,,,0.00,Wunderground v.1.15,2014-01-09 00:40:00,
2014-01-08 18:50:00,42.4,29.9,30.31,SSE,148,1.0,11.0,61,0.00,,,0.00,Wunderground v.1.15,2014-01-09 00:50:00,
2014-01-08 18:55:00,42.3,29.8,30.31,SE,127,2.0,11.0,61,0.00,,,0.00,Wunderground v.1.15,2014-01-09 00:55:00,
2014-01-08 19:00:00,42.2,29.7,30.31,SE,133,2.0,11.0,61,0.00,,,0.00,Wunderground v.1.15,2014-01-09 01:00:00,
2014-01-08 19:05:00,42.0,30.3,30.31,SE,145,1.0,11.0,63,0.00,,,0.00,Wunderground v.1.15,2014-01-09 01:05:00,
2014-01-08 19:10:00,42.1,29.6,30.32,ESE,115,1.0,11.0,61,0.00,,,0.00,Wunderground v.1.15,2014-01-09 01:10:00,
2014-01-08 19:15:00,43.0,30.1,30.32,ESE,113,2.0,11.0,60,0.00,,,0.00,Wunderground v.1.15,2014-01-09 01:15:00,
2014-01-08 19:20:00,43.3,29.9,30.31,ESE,106,3.0,11.0,59,0.00,,,0.00,Wunderground v.1.15,2014-01-09 01:20:00,
2014-01-08 19:25:00,43.4,30.4,30.31,ESE,122,3.0,11.0,60,0.00,,,0.00,Wunderground v.1.15,2014-01-09 01:25:00,
2014-01-08 19:30:00,43.6,30.6,30.32,ESE,116,3.0,11.0,60,0.00,,,0.00,Wunderground v.1.15,2014-01-09 01:30:00,
2014-01-08 19:35:00,43.7,30.7,30.31,ESE,120,3.0,11.0,60,0.00,,,0.00,Wunderground v.1.15,2014-01-09 01:35:00,
2014-01-08 19:40:00,43.6,31.0,30.31,SE,137,4.0,4.0,61,0.00,,,0.00,Wunderground v.1.15,2014-01-09 01:40:00,
2014-01-08 19:45:00,43.6,31.0,30.32,SE,127,4.0,11.0,61,0.00,,,0.00,Wunderground v.1.15,2014-01-09 01:45:00,
2014-01-08 19:55:00,43.9,31.3,30.32,ESE,111,3.0,11.0,61,0.00,,,0.00,Wunderground v.1.15,2014-01-09 01:55:00,
2014-01-08 20:00:00,43.9,32.1,30.32,ESE,118,4.0,11.0,63,0.00,,,0.00,Wunderground v.1.15,2014-01-09 02:00:00,
2014-01-08 20:05:00,43.7,32.3,30.32,ESE,122,4.0,11.0,64,0.00,,,0.00,Wunderground v.1.15,2014-01-09 02:05:00,
2014-01-08 20:10:00,43.8,32.8,30.33,ESE,120,4.0,11.0,65,0.00,,,0.00,Wunderground v.1.15,2014-01-09 02:10:00,
2014-01-08 20:15:00,43.9,33.3,30.33,ESE,115,4.0,11.0,66,0.00,,,0.00,Wunderground v.1.15,2014-01-09 02:15:00,
2014-01-08 20:25:00,43.6,33.7,30.33,SE,129,3.0,11.0,68,0.00,,,0.00,Wunderground v.1.15,2014-01-09 02:25:00,
2014-01-08 20:30:00,43.6,34.1,30.32,SE,129,4.0,11.0,69,0.00,,,0.00,Wunderground v.1.15,2014-01-09 02:30:00,
2014-01-08 20:35:00,43.6,34.1,30.32,ESE,114,5.0,11.0,69,0.00,,,0.00,Wunderground v.1.15,2014-01-09 02:35:00,
2014-01-08 20:40:00,43.6,34.5,30.32,ESE,102,5.0,11.0,70,0.00,,,0.00,Wunderground v.1.15,2014-01-09 02:40:00,
2014-01-08 20:45:00,43.4,34.6,30.32,SE,139,5.0,11.0,71,0.00,,,0.00,Wunderground v.1.15,2014-01-09 02:45:00,
2014-01-08 20:50:00,43.2,34.8,30.32,SE,132,6.0,6.0,72,0.00,,,0.00,Wunderground v.1.15,2014-01-09 02:50:00,
2014-01-08 21:00:00,42.8,35.1,30.32,ESE,111,6.0,11.0,74,0.00,,,0.00,Wunderground v.1.15,2014-01-09 03:00:00,
2014-01-08 21:05:00,43.1,35.4,30.33,ESE,111,6.0,11.0,74,0.00,,,0.00,Wunderground v.1.15,2014-01-09 03:05:00,
2014-01-08 21:10:00,43.2,35.5,30.33,SE,139,5.0,5.0,74,0.00,,,0.00,Wunderground v.1.15,2014-01-09 03:10:00,
2014-01-08 21:15:00,43.4,35.7,30.33,ESE,120,4.0,11.0,74,0.00,,,0.00,Wunderground v.1.15,2014-01-09 03:15:00,
2014-01-08 21:20:00,43.3,35.9,30.33,East,100,5.0,5.0,75,0.00,,,0.00,Wunderground v.1.15,2014-01-09 03:20:00,
2014-01-08 21:30:00,43.4,36.0,30.34,SE,124,3.0,3.0,75,0.00,,,0.00,Wunderground v.1.15,2014-01-09 03:30:00,
2014-01-08 21:35:00,43.2,36.1,30.33,SE,129,4.0,4.0,76,0.00,,,0.00,Wunderground v.1.15,2014-01-09 03:35:00,
2014-01-08 21:40:00,42.9,36.2,30.33,ESE,113,5.0,5.0,77,0.00,,,0.00,Wunderground v.1.15,2014-01-09 03:40:00,
2014-01-08 21:45:00,43.0,36.6,30.33,SE,129,5.0,7.0,78,0.00,,,0.00,Wunderground v.1.15,2014-01-09 03:45:00,
2014-01-08 21:50:00,43.1,37.0,30.33,ESE,123,5.0,11.0,79,0.00,,,0.00,Wunderground v.1.15,2014-01-09 03:50:00,
2014-01-08 21:55:00,43.1,37.0,30.34,ESE,103,5.0,11.0,79,0.00,,,0.00,Wunderground v.1.15,2014-01-09 03:55:00,
2014-01-08 22:05:00,43.0,37.3,30.34,SE,129,4.0,11.0,80,0.00,,,0.00,Wunderground v.1.15,2014-01-09 04:05:00,
2014-01-08 22:10:00,42.9,37.5,30.34,SE,140,4.0,11.0,81,0.00,,,0.00,Wunderground v.1.15,2014-01-09 04:10:00,
2014-01-08 22:15:00,42.8,37.4,30.34,SE,124,5.0,11.0,81,0.00,,,0.00,Wunderground v.1.15,2014-01-09 04:15:00,
2014-01-08 22:20:00,42.6,37.5,30.34,SE,124,6.0,6.0,82,0.00,,,0.00,Wunderground v.1.15,2014-01-09 04:20:00,
2014-01-08 22:25:00,42.5,37.4,30.33,ESE,104,5.0,11.0,82,0.00,,,0.00,Wunderground v.1.15,2014-01-09 04:25:00,
2014-01-08 22:35:00,42.4,37.3,30.33,SE,129,4.0,11.0,82,0.00,,,0.00,Wunderground v.1.15,2014-01-09 04:35:00,
2014-01-08 22:40:00,42.5,37.7,30.34,East,91,3.0,3.0,83,0.00,,,0.00,Wunderground v.1.15,2014-01-09 04:40:00,
2014-01-08 22:45:00,42.4,37.3,30.35,East,96,1.0,11.0,82,0.00,,,0.00,Wunderground v.1.15,2014-01-09 04:45:00,
2014-01-08 22:50:00,42.3,37.5,30.33,ESE,122,1.0,11.0,83,0.00,,,0.00,Wunderground v.1.15,2014-01-09 04:50:00,
2014-01-08 22:55:00,41.6,37.1,30.33,ESE,115,4.0,11.0,84,0.00,,,0.00,Wunderground v.1.15,2014-01-09 04:55:00,
2014-01-08 23:00:00,41.4,37.2,30.33,ESE,105,5.0,5.0,85,0.00,,,0.00,Wunderground v.1.15,2014-01-09 05:00:00,
2014-01-08 23:05:00,41.6,37.4,30.33,East,81,4.0,11.0,85,0.00,,,0.00,Wunderground v.1.15,2014-01-09 05:05:00,
2014-01-08 23:10:00,41.6,37.4,30.33,ESE,116,3.0,11.0,85,0.00,,,0.00,Wunderground v.1.15,2014-01-09 05:10:00,
2014-01-08 23:15:00,41.7,37.5,30.33,ESE,108,3.0,11.0,85,0.00,,,0.00,Wunderground v.1.15,2014-01-09 05:15:00,
2014-01-08 23:20:00,41.6,37.4,30.33,ESE,117,3.0,3.0,85,0.00,,,0.00,Wunderground v.1.15,2014-01-09 05:20:00,
2014-01-08 23:25:00,41.6,37.7,30.33,ESE,114,2.0,11.0,86,0.00,,,0.00,Wunderground v.1.15,2014-01-09 05:25:00,
2014-01-08 23:30:00,41.6,37.7,30.33,ESE,109,2.0,11.0,86,0.00,,,0.00,Wunderground v.1.15,2014-01-09 05:30:00,
2014-01-08 23:35:00,41.5,37.6,30.32,East,97,3.0,11.0,86,0.00,,,0.00,Wunderground v.1.15,2014-01-09 05:35:00,
2014-01-08 23:40:00,41.4,37.5,30.33,ESE,122,3.0,11.0,86,0.00,,,0.00,Wunderground v.1.15,2014-01-09 05:40:00,
2014-01-08 23:45:00,41.4,37.5,30.33,ESE,108,3.0,11.0,86,0.00,,,0.00,Wunderground v.1.15,2014-01-09 05:45:00,
2014-01-08 23:50:00,41.4,37.5,30.33,ESE,119,3.0,3.0,86,0.00,,,0.00,Wunderground v.1.15,2014-01-09 05:50:00,
2014-01-08 23:55:00,41.2,37.3,30.32,SE,124,3.0,11.0,86,0.00,,,0.00,Wunderground v.1.15,2014-01-09 05:55:00,